createdAt,value
2018-04-27T05:23:33.905Z,14.94
2018-04-27T05:26:03.414Z,14.87
2018-04-27T05:28:32.168Z,14.82
2018-04-27T05:31:13.231Z,14.85
2018-04-27T05:33:42.112Z,15.04
2018-04-27T05:36:11.152Z,15.27
2018-04-27T05:38:39.967Z,15.53
2018-04-27T05:41:08.703Z,15.68
2018-04-27T05:43:37.580Z,15.52
2018-04-27T05:46:06.373Z,15.59
2018-04-27T05:48:36.388Z,15.54
2018-04-27T05:51:05.880Z,15.43
2018-04-27T05:53:45.498Z,15.41
2018-04-27T05:56:18.135Z,15.29
2018-04-27T05:58:46.857Z,15.69
2018-04-27T06:01:15.609Z,15.70
2018-04-27T06:09:53.115Z,15.66
2018-04-27T06:12:22.653Z,15.74
2018-04-27T06:14:51.384Z,15.78
2018-04-27T06:17:20.150Z,15.91
2018-04-27T06:19:58.809Z,16.06
2018-04-27T06:22:29.582Z,15.90
2018-04-27T06:24:58.325Z,16.10
2018-04-27T06:27:27.094Z,16.34
2018-04-27T06:29:55.876Z,16.53
2018-04-27T06:32:27.532Z,16.38
2018-04-27T06:34:58.315Z,16.21
2018-04-27T06:37:27.609Z,16.04
2018-04-27T06:42:34.399Z,16.11
2018-04-27T06:45:03.232Z,16.78
2018-04-27T06:47:32.016Z,16.87
2018-04-27T06:50:00.788Z,17.03
2018-04-27T06:52:29.578Z,17.07
2018-04-27T06:54:58.321Z,16.93
2018-04-27T06:57:27.180Z,17.20
2018-04-27T06:59:55.916Z,17.09
2018-04-27T07:02:25.452Z,17.08
2018-04-27T07:04:54.273Z,16.93
2018-04-27T07:07:23.063Z,16.88
2018-04-27T07:12:32.594Z,16.85
2018-04-27T07:15:01.471Z,16.73
2018-04-27T07:17:30.265Z,16.67
2018-04-27T07:19:59.170Z,16.92
2018-04-27T07:22:28.687Z,16.99
2018-04-27T07:24:57.487Z,16.90
2018-04-27T07:27:29.714Z,17.10
2018-04-27T07:30:14.695Z,16.91
2018-04-27T07:32:43.514Z,16.52
2018-04-27T07:35:13.048Z,16.51
2018-04-27T07:37:41.806Z,16.56
2018-04-27T07:40:10.617Z,16.58
2018-04-27T07:42:39.381Z,16.90
2018-04-27T07:45:08.150Z,17.17
2018-04-27T07:47:37.718Z,17.51
2018-04-27T07:50:06.469Z,17.37
2018-04-27T07:52:35.221Z,17.52
2018-04-27T07:55:04.148Z,17.73
2018-04-27T07:57:33.716Z,17.74
2018-04-27T08:00:03.353Z,17.84
2018-04-27T08:02:32.204Z,17.56
2018-04-27T08:05:02.418Z,17.57
2018-04-27T08:07:31.213Z,17.97
2018-04-27T08:10:00.808Z,18.32
2018-04-27T08:12:30.358Z,18.51
2018-04-27T08:14:59.136Z,18.49
2018-04-27T08:17:27.905Z,18.18
2018-04-27T08:19:56.645Z,17.94
2018-04-27T08:22:25.444Z,18.15
2018-04-27T08:24:54.213Z,18.63
2018-04-27T08:27:23.004Z,18.83
2018-04-27T08:29:52.562Z,18.98
2018-04-27T08:32:25.530Z,19.08
2018-04-27T08:34:54.658Z,19.23
2018-04-27T08:37:24.208Z,19.16
2018-04-27T08:39:53.071Z,18.84
2018-04-27T08:42:21.805Z,18.39
2018-04-27T08:44:50.609Z,17.91
2018-04-27T08:47:19.380Z,17.94
2018-04-27T08:49:48.174Z,18.64
2018-04-27T08:52:16.916Z,19.22
2018-04-27T08:54:45.723Z,19.26
2018-04-27T08:57:14.485Z,19.40
2018-04-27T08:59:43.318Z,19.52
2018-04-27T09:02:12.132Z,19.70
2018-04-27T09:04:40.995Z,19.98
2018-04-27T09:07:09.789Z,20.16
2018-04-27T09:09:38.625Z,20.00
2018-04-27T09:12:08.147Z,20.22
2018-04-27T09:14:38.796Z,20.61
2018-04-27T09:17:09.283Z,20.76
2018-04-27T09:19:38.359Z,20.71
2018-04-27T09:22:07.251Z,20.65
2018-04-27T09:24:36.070Z,20.62
2018-04-27T09:27:05.764Z,21.07
2018-04-27T09:29:34.992Z,21.36
2018-04-27T09:34:46.243Z,21.48
2018-04-27T09:37:15.010Z,21.40
2018-04-27T09:39:43.804Z,21.32
2018-04-27T09:42:13.095Z,21.21
2018-04-27T09:44:42.041Z,21.10
2018-04-27T09:47:10.782Z,20.80
2018-04-27T09:49:39.602Z,20.73
2018-04-27T09:52:08.378Z,20.36
2018-04-27T09:54:37.140Z,20.03
2018-04-27T09:57:05.911Z,20.99
2018-04-27T09:59:35.600Z,21.66
2018-04-27T10:02:04.365Z,22.36
2018-04-27T10:04:33.209Z,22.26
2018-04-27T10:07:02.724Z,21.79
2018-04-27T10:09:31.522Z,21.51
2018-04-27T10:12:00.332Z,21.96
2018-04-27T10:14:29.584Z,22.38
2018-04-27T10:16:58.340Z,22.43
2018-04-27T10:19:44.851Z,21.79
2018-04-27T10:22:13.653Z,21.56
2018-04-27T10:24:42.441Z,21.61
2018-04-27T10:27:12.038Z,22.09
2018-04-27T10:29:40.781Z,21.73
2018-04-27T10:32:09.530Z,22.16
2018-04-27T10:34:39.073Z,22.40
2018-04-27T10:37:07.866Z,22.47
2018-04-27T10:39:36.674Z,22.67
2018-04-27T10:42:05.489Z,22.83
2018-04-27T10:44:35.049Z,22.82
2018-04-27T10:47:04.623Z,22.60
2018-04-27T10:49:34.204Z,22.99
2018-04-27T10:52:02.999Z,23.35
2018-04-27T10:54:32.547Z,23.06
2018-04-27T10:57:01.382Z,22.71
2018-04-27T10:59:30.345Z,22.64
2018-04-27T11:01:59.135Z,22.83
2018-04-27T11:04:27.906Z,23.00
2018-04-27T11:06:57.405Z,22.47
2018-04-27T11:09:29.632Z,22.37
2018-04-27T11:11:59.202Z,22.43
2018-04-27T11:14:28.000Z,22.33
2018-04-27T11:17:00.508Z,22.69
2018-04-27T11:19:31.501Z,23.18
2018-04-27T11:22:01.483Z,23.13
2018-04-27T11:24:30.230Z,22.85
2018-04-27T11:27:03.638Z,23.47
2018-04-27T11:29:32.376Z,23.49
2018-04-27T11:32:01.923Z,23.62
2018-04-27T11:34:30.823Z,23.68
2018-04-27T11:36:59.727Z,23.28
2018-04-27T11:39:28.508Z,23.58
2018-04-27T11:41:57.289Z,24.14
2018-04-27T11:44:26.038Z,24.20
2018-04-27T11:46:54.836Z,24.09
2018-04-27T11:49:24.353Z,24.17
2018-04-27T11:51:53.131Z,23.78
2018-04-27T11:54:21.932Z,23.94
2018-04-27T11:56:50.817Z,24.24
2018-04-27T11:59:19.590Z,24.20
2018-04-27T12:01:49.150Z,24.34
2018-04-27T12:04:18.061Z,24.82
2018-04-27T12:06:46.820Z,24.76
2018-04-27T12:09:15.620Z,24.69
2018-04-27T12:11:45.666Z,24.89
2018-04-27T12:14:15.232Z,25.02
2018-04-27T12:16:44.031Z,25.29
2018-04-27T12:19:12.962Z,25.05
2018-04-27T12:21:42.480Z,24.65
2018-04-27T12:24:12.029Z,25.00
2018-04-27T12:26:40.832Z,25.59
2018-04-27T12:29:10.732Z,25.44
2018-04-27T12:31:40.636Z,25.21
2018-04-27T12:37:13.630Z,25.33
2018-04-27T12:39:43.209Z,24.93
2018-04-27T12:42:11.923Z,24.27
2018-04-27T12:44:40.861Z,24.18
2018-04-27T12:47:09.608Z,23.93
2018-04-27T12:49:39.161Z,23.91
2018-04-27T12:52:08.135Z,24.43
2018-04-27T12:54:37.658Z,24.56
2018-04-27T12:57:06.593Z,24.72
2018-04-27T12:59:35.486Z,24.69
2018-04-27T13:02:04.279Z,24.87
2018-04-27T13:04:33.802Z,24.32
2018-04-27T13:07:03.641Z,23.41
2018-04-27T13:09:32.436Z,23.63
2018-04-27T13:12:01.264Z,24.23
2018-04-27T13:14:30.036Z,24.45
2018-04-27T13:16:58.849Z,24.42
2018-04-27T13:19:27.603Z,24.53
2018-04-27T13:21:56.390Z,24.92
2018-04-27T13:24:25.120Z,24.99
2018-04-27T13:26:54.612Z,24.80
2018-04-27T13:29:24.212Z,24.72
2018-04-27T13:31:53.013Z,24.59
2018-04-27T13:34:21.746Z,24.59
2018-04-27T13:39:55.623Z,24.44
2018-04-27T13:42:40.666Z,24.93
2018-04-27T13:48:03.448Z,24.39
2018-04-27T13:53:40.130Z,24.80
2018-04-27T13:56:28.025Z,24.80
2018-04-27T13:59:09.036Z,23.93
2018-04-27T14:04:53.673Z,24.45
2018-04-27T14:07:39.864Z,24.94
2018-04-27T14:10:21.905Z,24.83
2018-04-27T14:12:59.716Z,25.02
2018-04-27T14:15:43.787Z,25.06
2018-04-27T14:18:25.105Z,24.71
2018-04-27T14:21:07.039Z,24.72
2018-04-27T14:23:45.839Z,24.75
2018-04-27T14:31:59.933Z,25.17
2018-04-27T14:34:38.224Z,24.95
2018-04-27T14:40:11.361Z,24.04
2018-04-27T14:42:52.346Z,24.21
2018-04-27T14:45:42.428Z,24.23
2018-04-27T14:48:28.573Z,24.55
2018-04-27T14:53:56.522Z,24.10
2018-04-27T14:56:33.676Z,24.22
2018-04-27T14:59:14.453Z,24.31
2018-04-27T15:01:53.479Z,24.25
2018-04-27T15:12:36.625Z,24.40
2018-04-27T15:23:44.603Z,23.67
2018-04-27T15:26:28.633Z,23.81
2018-04-27T15:31:58.495Z,23.36
2018-04-27T15:37:42.939Z,23.37
2018-04-27T15:40:34.691Z,23.25
2018-04-27T15:43:10.546Z,22.74
2018-04-27T15:45:53.554Z,23.15
2018-04-27T15:48:35.586Z,23.30
2018-04-27T15:51:15.315Z,23.19
2018-04-27T15:53:57.047Z,22.79
2018-04-27T15:59:28.850Z,23.16
2018-04-27T16:05:14.349Z,23.35
2018-04-27T16:08:02.082Z,23.28
2018-04-27T16:27:05.725Z,23.55
2018-04-27T16:29:34.482Z,23.83
2018-04-27T16:32:03.217Z,23.94
2018-04-27T16:34:32.025Z,24.06
2018-04-27T16:37:00.790Z,23.58
2018-04-27T16:39:30.509Z,23.09
2018-04-27T16:42:05.114Z,23.24
2018-04-27T16:44:34.623Z,23.34
2018-04-27T16:47:03.386Z,23.44
2018-04-27T16:49:32.201Z,23.33
2018-04-27T16:52:00.944Z,23.27
2018-04-27T16:54:29.719Z,22.86
2018-04-27T16:56:58.459Z,22.70
2018-04-27T16:59:27.235Z,22.76
2018-04-27T17:01:56.061Z,22.90
2018-04-27T17:04:24.808Z,22.78
2018-04-27T17:06:53.573Z,22.75
2018-04-27T17:09:22.305Z,22.45
2018-04-27T17:11:51.030Z,22.30
2018-04-27T17:14:20.734Z,22.17
2018-04-27T17:16:53.121Z,22.15
2018-04-27T17:19:22.323Z,22.24
2018-04-27T17:21:51.982Z,22.02
2018-04-27T17:24:20.760Z,21.95
2018-04-27T17:26:56.526Z,21.81
2018-04-27T17:29:35.644Z,21.88
2018-04-27T17:32:08.316Z,21.65
2018-04-27T17:34:44.105Z,21.55
2018-04-27T17:37:13.750Z,21.45
2018-04-27T17:39:47.334Z,21.23
2018-04-27T17:42:16.198Z,20.77
2018-04-27T17:44:44.968Z,20.84
2018-04-27T17:47:14.461Z,20.87
2018-04-27T17:49:43.216Z,21.04
2018-04-27T17:52:12.014Z,20.80
2018-04-27T17:54:40.793Z,20.80
2018-04-27T17:57:09.526Z,20.56
2018-04-27T17:59:39.155Z,20.55
2018-04-27T18:02:07.898Z,20.60
2018-04-27T18:04:36.649Z,20.63
2018-04-27T18:10:04.621Z,20.41
2018-04-27T18:12:35.184Z,20.27
2018-04-27T18:15:04.795Z,20.12
2018-04-27T18:17:33.492Z,20.00
2018-04-27T18:20:04.154Z,20.06
2018-04-27T18:22:32.923Z,20.20
2018-04-27T18:25:02.811Z,20.08
2018-04-27T18:27:31.562Z,20.00
2018-04-27T18:30:00.382Z,19.97
2018-04-27T18:32:29.889Z,19.93
2018-04-27T18:34:58.675Z,20.03
2018-04-27T18:37:28.237Z,19.84
2018-04-27T18:39:56.981Z,19.62
2018-04-27T18:42:25.772Z,19.58
2018-04-27T18:44:55.595Z,19.49
2018-04-27T18:47:24.331Z,19.45
2018-04-27T18:49:53.079Z,19.34
2018-04-27T18:52:21.850Z,19.26
2018-04-27T18:54:50.630Z,19.26
2018-04-27T18:57:23.277Z,19.10
2018-04-27T18:59:51.862Z,18.98
2018-04-27T19:02:20.611Z,18.93
2018-04-27T19:04:49.369Z,19.04
2018-04-27T19:07:19.982Z,18.96
2018-04-27T19:09:48.732Z,18.95
2018-04-27T19:12:17.521Z,18.86
2018-04-27T19:14:46.325Z,18.66
2018-04-27T19:17:15.060Z,18.76
2018-04-27T19:20:01.850Z,18.87
2018-04-27T19:22:33.433Z,18.55
2018-04-27T19:25:02.973Z,18.25
2018-04-27T19:27:31.715Z,18.36
2018-04-27T19:30:08.042Z,18.41
2018-04-27T19:32:36.807Z,18.30
2018-04-27T19:35:05.678Z,18.23
2018-04-27T19:37:34.416Z,18.24
2018-04-27T19:40:03.188Z,18.23
2018-04-27T19:42:31.962Z,18.13
2018-04-27T19:45:01.485Z,18.07
2018-04-27T19:47:30.227Z,17.99
2018-04-27T19:49:58.997Z,17.94
2018-04-27T19:52:28.530Z,17.87
2018-04-27T19:54:57.275Z,17.85
2018-04-27T19:57:26.021Z,17.65
2018-04-27T19:59:54.807Z,17.63
2018-04-27T20:02:23.593Z,17.62
2018-04-27T20:04:52.424Z,17.37
2018-04-27T20:07:21.137Z,17.38
2018-04-27T20:09:52.165Z,17.46
2018-04-27T20:12:20.937Z,17.47
2018-04-27T20:14:49.676Z,17.21
2018-04-27T20:17:30.156Z,17.04
2018-04-27T20:19:58.894Z,17.16
2018-04-27T20:22:28.428Z,17.25
2018-04-27T20:25:01.552Z,17.22
2018-04-27T20:27:31.161Z,17.21
2018-04-27T20:30:10.976Z,17.04
2018-04-27T20:32:42.152Z,16.74
2018-04-27T20:35:15.395Z,16.72
2018-04-27T20:37:45.853Z,16.95
2018-04-27T20:40:14.593Z,16.90
2018-04-27T20:42:48.354Z,16.83
2018-04-27T20:45:24.841Z,16.87
2018-04-27T20:47:54.379Z,16.91
2018-04-27T20:50:31.537Z,16.72
2018-04-27T20:53:00.324Z,16.53
2018-04-27T20:55:29.049Z,16.55
2018-04-27T20:57:58.565Z,16.63
2018-04-27T21:00:29.758Z,16.46
2018-04-27T21:02:58.507Z,16.44
2018-04-27T21:05:28.038Z,16.38
2018-04-27T21:07:57.596Z,16.42
2018-04-27T21:10:29.934Z,16.34
2018-04-27T21:12:59.469Z,16.12
2018-04-27T21:15:28.250Z,16.21
2018-04-27T21:17:57.064Z,16.38
2018-04-27T21:20:31.652Z,16.47
2018-04-27T21:23:00.447Z,16.46
2018-04-27T21:25:29.828Z,16.36
2018-04-27T21:28:01.682Z,16.23
2018-04-27T21:30:38.149Z,16.27
2018-04-27T21:33:08.531Z,16.25
2018-04-27T21:35:49.747Z,16.21
2018-04-27T21:38:35.395Z,16.02
2018-04-27T21:41:22.851Z,15.60
2018-04-27T21:44:03.073Z,15.69
2018-04-27T21:46:31.788Z,15.65
2018-04-27T21:49:10.452Z,15.44
2018-04-27T21:54:40.130Z,15.25
2018-04-27T21:57:14.855Z,15.63
2018-04-27T21:59:53.444Z,15.51
2018-04-27T22:08:43.077Z,15.53
2018-04-27T22:11:19.701Z,15.42
2018-04-27T22:13:48.470Z,14.82
2018-04-27T22:16:19.245Z,14.91
2018-04-27T22:18:48.762Z,15.18
2018-04-27T22:21:18.355Z,15.21
2018-04-27T22:23:47.158Z,15.31
2018-04-27T22:26:18.480Z,15.14
2018-04-27T22:28:51.236Z,15.03
2018-04-27T22:31:29.526Z,15.15
2018-04-27T22:34:12.541Z,15.09
2018-04-27T22:36:54.560Z,14.69
2018-04-27T22:39:36.366Z,14.78
2018-04-27T22:42:07.992Z,14.96
2018-04-27T22:44:38.669Z,15.13
2018-04-27T22:50:22.543Z,14.94
2018-04-27T22:52:53.233Z,15.00
2018-04-27T22:55:22.745Z,15.03
2018-04-27T22:57:59.836Z,14.79
2018-04-27T23:00:29.319Z,14.60
2018-04-27T23:02:58.194Z,14.51
2018-04-27T23:05:36.230Z,14.47
2018-04-27T23:08:04.969Z,14.63
2018-04-27T23:14:06.485Z,14.92
2018-04-27T23:16:35.255Z,14.96
2018-04-27T23:19:04.739Z,14.96
2018-04-27T23:24:16.157Z,14.57
2018-04-27T23:26:46.377Z,14.60
2018-04-27T23:29:15.137Z,14.69
2018-04-27T23:32:03.919Z,14.60
2018-04-27T23:34:37.847Z,14.62
2018-04-27T23:37:06.634Z,14.25
2018-04-27T23:39:35.395Z,14.50
2018-04-27T23:42:06.157Z,14.66
2018-04-27T23:44:34.933Z,14.73
2018-04-27T23:47:03.671Z,14.69
2018-04-27T23:49:33.416Z,14.70
2018-04-27T23:52:16.582Z,14.75
2018-04-27T23:54:57.780Z,14.46
2018-04-27T23:57:35.617Z,14.35
